createdAt,value
2023-09-17T00:00:21.541Z,9.13
2023-09-17T00:02:48.708Z,10.43
2023-09-17T00:05:15.586Z,9.50
2023-09-17T00:07:43.233Z,10.57
2023-09-17T00:10:10.629Z,10.00
2023-09-17T00:12:37.593Z,9.23
2023-09-17T00:15:05.367Z,7.40
2023-09-17T00:17:32.218Z,7.85
2023-09-17T00:19:59.070Z,7.55
2023-09-17T00:22:26.092Z,8.10
2023-09-17T00:24:52.927Z,8.02
2023-09-17T00:27:19.635Z,6.82
2023-09-17T00:29:46.355Z,6.65
2023-09-17T00:32:13.084Z,8.75
2023-09-17T00:34:40.027Z,8.25
2023-09-17T00:37:08.681Z,11.52
2023-09-17T00:39:35.427Z,8.45
2023-09-17T00:42:02.226Z,8.63
2023-09-17T00:44:29.017Z,7.50
2023-09-17T00:46:57.341Z,6.30
2023-09-17T00:49:24.585Z,7.55
2023-09-17T00:51:51.443Z,8.52
2023-09-17T00:54:18.620Z,7.32
2023-09-17T00:56:45.666Z,9.43
2023-09-17T00:59:12.939Z,8.45
2023-09-17T01:01:39.762Z,10.95
2023-09-17T01:04:09.083Z,8.65
2023-09-17T01:06:40.086Z,8.55
2023-09-17T01:09:10.237Z,8.17
2023-09-17T01:11:37.473Z,7.63
2023-09-17T01:14:13.910Z,8.27
2023-09-17T01:16:42.687Z,7.65
2023-09-17T01:19:19.896Z,7.47
2023-09-17T01:21:55.282Z,7.70
2023-09-17T01:24:28.037Z,7.50
2023-09-17T01:27:14.308Z,7.57
2023-09-17T01:29:42.956Z,7.97
2023-09-17T01:32:13.507Z,8.70
2023-09-17T01:34:45.493Z,8.90
2023-09-17T01:37:24.379Z,7.90
2023-09-17T01:39:58.176Z,8.50
2023-09-17T01:42:26.759Z,7.82
2023-09-17T01:44:56.589Z,7.45
2023-09-17T01:47:24.953Z,7.47
2023-09-17T01:49:52.131Z,8.27
2023-09-17T01:52:23.641Z,7.97
2023-09-17T01:54:51.413Z,8.65
2023-09-17T01:57:18.167Z,8.75
2023-09-17T01:59:44.895Z,8.10
2023-09-17T02:02:11.739Z,10.43
2023-09-17T02:04:38.722Z,8.38
2023-09-17T02:07:05.486Z,10.18
2023-09-17T02:09:32.208Z,10.60
2023-09-17T02:11:58.939Z,8.98
2023-09-17T02:14:25.666Z,8.77
2023-09-17T02:16:52.632Z,9.02
2023-09-17T02:19:19.420Z,8.63
2023-09-17T02:21:46.174Z,8.13
2023-09-17T02:24:13.950Z,9.95
2023-09-17T02:26:42.136Z,11.20
2023-09-17T02:29:08.962Z,8.13
2023-09-17T02:31:36.069Z,9.38
2023-09-17T02:34:03.348Z,8.07
2023-09-17T02:36:30.067Z,9.95
2023-09-17T02:38:57.625Z,9.85
2023-09-17T02:41:24.398Z,10.02
2023-09-17T02:43:51.274Z,9.23
2023-09-17T02:46:19.546Z,8.60
2023-09-17T02:48:48.835Z,10.05
2023-09-17T02:51:16.488Z,10.15
2023-09-17T02:53:43.518Z,8.65
2023-09-17T02:56:10.237Z,10.13
2023-09-17T02:58:37.085Z,9.90
2023-09-17T03:01:16.305Z,8.82
2023-09-17T03:03:43.131Z,10.52
2023-09-17T03:06:11.795Z,9.50
2023-09-17T03:08:43.387Z,9.40
2023-09-17T03:13:48.915Z,10.13
2023-09-17T03:16:20.203Z,9.40
2023-09-17T03:18:47.136Z,9.70
2023-09-17T03:21:14.039Z,8.48
2023-09-17T03:23:40.804Z,8.65
2023-09-17T03:26:10.308Z,8.07
2023-09-17T03:28:37.219Z,8.82
2023-09-17T03:31:05.360Z,8.35
2023-09-17T03:33:32.710Z,9.55
2023-09-17T03:36:00.462Z,8.25
2023-09-17T03:38:27.250Z,9.65
2023-09-17T03:40:54.329Z,9.95
2023-09-17T03:43:21.276Z,8.82
2023-09-17T03:45:48.669Z,10.40
2023-09-17T03:48:15.586Z,8.40
2023-09-17T03:50:43.937Z,8.77
2023-09-17T03:53:11.521Z,9.93
2023-09-17T03:55:39.233Z,9.95
2023-09-17T03:58:07.010Z,9.82
2023-09-17T04:00:40.333Z,9.95
2023-09-17T04:03:09.611Z,9.70
2023-09-17T04:05:37.479Z,9.38
2023-09-17T04:08:04.554Z,8.98
2023-09-17T04:10:31.739Z,10.05
2023-09-17T04:12:58.468Z,11.55
2023-09-17T04:15:25.219Z,10.38
2023-09-17T04:17:52.797Z,10.77
2023-09-17T04:20:20.667Z,9.98
2023-09-17T04:22:50.274Z,8.85
2023-09-17T04:25:20.054Z,8.90
2023-09-17T04:27:49.094Z,11.57
2023-09-17T04:30:19.111Z,8.73
2023-09-17T04:32:48.076Z,9.82
2023-09-17T04:35:19.795Z,10.50
2023-09-17T04:40:19.405Z,9.52
2023-09-17T04:42:49.631Z,9.25
2023-09-17T04:45:39.173Z,10.20
2023-09-17T04:50:49.791Z,10.15
2023-09-17T04:53:17.983Z,9.45
2023-09-17T04:55:46.737Z,11.10
2023-09-17T04:58:15.566Z,10.57
2023-09-17T05:00:43.024Z,10.65
2023-09-17T05:03:09.876Z,10.73
2023-09-17T05:05:36.703Z,9.25
2023-09-17T05:08:04.491Z,10.85
2023-09-17T05:10:31.294Z,9.18
2023-09-17T05:12:58.337Z,8.95
2023-09-17T05:15:25.700Z,14.23
2023-09-17T05:17:55.756Z,10.57
2023-09-17T05:20:23.219Z,13.80
2023-09-17T05:22:50.448Z,11.77
2023-09-17T05:25:17.338Z,9.98
2023-09-17T05:27:45.099Z,11.75
2023-09-17T05:30:13.318Z,10.43
2023-09-17T05:32:40.608Z,10.65
2023-09-17T05:35:09.040Z,10.70
2023-09-17T05:37:36.512Z,10.20
2023-09-17T05:40:08.018Z,11.57
2023-09-17T05:42:34.938Z,10.43
2023-09-17T05:45:02.037Z,10.05
2023-09-17T05:47:29.870Z,10.80
2023-09-17T05:49:59.042Z,11.85
2023-09-17T05:52:29.887Z,11.95
2023-09-17T05:54:56.891Z,10.85
2023-09-17T05:57:23.583Z,12.18
2023-09-17T05:59:50.535Z,13.30
2023-09-17T06:02:17.329Z,11.40
2023-09-17T06:04:44.950Z,12.35
2023-09-17T06:07:11.715Z,12.65
2023-09-17T06:09:38.467Z,12.75
2023-09-17T06:12:06.008Z,12.23
2023-09-17T06:14:33.103Z,13.07
2023-09-17T06:16:59.865Z,12.18
2023-09-17T06:19:30.502Z,11.65
2023-09-17T06:21:57.757Z,12.93
2023-09-17T06:24:24.566Z,14.32
2023-09-17T06:26:51.644Z,12.35
2023-09-17T06:29:19.123Z,12.85
2023-09-17T06:31:46.654Z,12.98
2023-09-17T06:34:13.935Z,13.73
2023-09-17T06:36:40.682Z,15.80
2023-09-17T06:39:08.178Z,15.40
2023-09-17T06:41:38.058Z,13.18
2023-09-17T06:44:07.208Z,12.15
2023-09-17T06:46:34.338Z,12.88
2023-09-17T06:49:01.781Z,13.30
2023-09-17T06:51:28.575Z,12.88
2023-09-17T06:53:55.417Z,15.63
2023-09-17T06:56:25.163Z,13.30
2023-09-17T06:58:52.163Z,12.57
2023-09-17T07:01:19.498Z,12.77
2023-09-17T07:03:46.260Z,14.00
2023-09-17T07:06:12.978Z,14.60
2023-09-17T07:08:39.742Z,13.40
2023-09-17T07:11:06.564Z,16.63
2023-09-17T07:13:33.410Z,14.13
2023-09-17T07:16:00.556Z,14.05
2023-09-17T07:18:27.626Z,13.93
2023-09-17T07:20:54.429Z,13.93
2023-09-17T07:23:21.149Z,16.33
2023-09-17T07:25:48.175Z,14.82
2023-09-17T07:28:15.090Z,14.65
2023-09-17T07:30:41.914Z,14.90
2023-09-17T07:33:08.792Z,14.38
2023-09-17T07:35:39.258Z,14.45
2023-09-17T07:38:06.580Z,13.98
2023-09-17T07:40:34.506Z,14.85
2023-09-17T07:43:02.430Z,14.65
2023-09-17T07:45:29.358Z,13.50
2023-09-17T07:47:56.739Z,13.57
2023-09-17T07:50:23.571Z,14.75
2023-09-17T07:52:50.372Z,14.02
2023-09-17T07:55:20.188Z,12.63
2023-09-17T07:57:47.462Z,13.50
2023-09-17T08:00:17.301Z,13.90
2023-09-17T08:02:45.869Z,12.98
2023-09-17T08:05:13.219Z,13.20
2023-09-17T08:07:43.544Z,13.38
2023-09-17T08:10:11.111Z,12.30
2023-09-17T08:12:38.028Z,13.75
2023-09-17T08:15:05.220Z,9.63
2023-09-17T08:17:32.111Z,10.93
2023-09-17T08:19:59.938Z,9.82
2023-09-17T08:22:28.579Z,12.32
2023-09-17T08:24:55.363Z,10.32
2023-09-17T08:27:22.898Z,9.10
2023-09-17T08:29:49.761Z,10.05
2023-09-17T08:32:16.637Z,9.05
2023-09-17T08:34:43.410Z,8.98
2023-09-17T08:37:10.322Z,8.93
2023-09-17T08:39:37.202Z,8.80
2023-09-17T08:42:04.808Z,9.00
2023-09-17T08:44:37.086Z,9.07
2023-09-17T08:47:04.137Z,8.23
2023-09-17T08:49:31.121Z,8.95
2023-09-17T08:52:01.044Z,6.75
2023-09-17T08:54:38.638Z,5.40
2023-09-17T08:57:06.807Z,6.18
2023-09-17T08:59:38.486Z,5.65
2023-09-17T09:04:37.943Z,8.70
2023-09-17T09:07:07.112Z,6.35
2023-09-17T09:09:37.413Z,5.78
2023-09-17T09:12:05.151Z,6.15
2023-09-17T09:14:32.380Z,6.03
2023-09-17T09:17:02.996Z,5.47
2023-09-17T09:19:29.837Z,5.22
2023-09-17T09:21:56.688Z,6.88
2023-09-17T09:24:30.785Z,3.97
2023-09-17T09:26:59.843Z,6.13
2023-09-17T09:29:28.960Z,4.75
2023-09-17T09:31:58.216Z,6.25
2023-09-17T09:34:26.583Z,4.20
2023-09-17T09:36:53.371Z,5.53
2023-09-17T09:39:22.043Z,5.38
2023-09-17T09:41:49.593Z,8.60
2023-09-17T09:44:19.479Z,5.28
2023-09-17T09:46:46.233Z,4.85
2023-09-17T09:49:13.138Z,5.57
2023-09-17T09:51:39.846Z,6.28
2023-09-17T09:54:06.684Z,3.95
2023-09-17T09:56:33.523Z,5.25
2023-09-17T09:59:01.647Z,4.18
2023-09-17T10:01:29.527Z,7.00
2023-09-17T10:03:59.803Z,4.95
2023-09-17T10:06:27.200Z,5.93
2023-09-17T10:08:54.521Z,6.05
2023-09-17T10:11:23.517Z,6.93
2023-09-17T10:13:54.756Z,6.20
2023-09-17T10:18:51.416Z,5.25
2023-09-17T10:21:19.686Z,5.20
2023-09-17T10:23:46.989Z,5.03
2023-09-17T10:26:16.629Z,6.35
2023-09-17T10:28:45.469Z,5.25
2023-09-17T10:31:13.369Z,5.32
2023-09-17T10:33:44.564Z,4.88
2023-09-17T10:36:13.659Z,4.35
2023-09-17T10:38:42.345Z,4.80
2023-09-17T10:41:11.505Z,4.35
2023-09-17T10:43:38.522Z,5.03
2023-09-17T10:46:08.789Z,4.20
2023-09-17T10:48:35.691Z,6.32
2023-09-17T10:51:02.569Z,4.32
2023-09-17T10:53:29.401Z,5.97
2023-09-17T10:56:11.524Z,4.82
2023-09-17T10:58:39.907Z,4.63
2023-09-17T11:01:10.252Z,5.28
2023-09-17T11:03:41.066Z,6.10
2023-09-17T11:06:25.029Z,5.40
2023-09-17T11:08:55.052Z,5.13
2023-09-17T11:11:25.220Z,5.28
2023-09-17T11:13:53.834Z,5.28
2023-09-17T11:16:22.195Z,5.72
2023-09-17T11:19:11.927Z,5.43
2023-09-17T11:21:41.143Z,5.97
2023-09-17T11:24:12.158Z,4.18
2023-09-17T11:26:43.818Z,6.03
2023-09-17T11:29:11.138Z,6.07
2023-09-17T11:32:01.376Z,4.05
2023-09-17T11:34:28.354Z,6.22
2023-09-17T11:36:56.193Z,4.20
2023-09-17T11:39:23.687Z,5.45
2023-09-17T11:41:56.640Z,6.05
2023-09-17T11:44:24.153Z,4.50
2023-09-17T11:46:51.286Z,6.30
2023-09-17T11:49:19.471Z,5.40
2023-09-17T11:51:47.744Z,4.60
2023-09-17T11:54:20.013Z,6.05
2023-09-17T11:56:54.924Z,5.72
2023-09-17T11:59:23.001Z,4.13
2023-09-17T12:01:58.541Z,7.75
2023-09-17T12:04:30.726Z,5.30
2023-09-17T12:06:58.548Z,4.78
2023-09-17T12:09:32.254Z,6.13
2023-09-17T12:12:00.565Z,3.40
2023-09-17T12:14:27.803Z,5.13
2023-09-17T12:16:54.830Z,6.20
2023-09-17T12:19:22.318Z,4.72
2023-09-17T12:21:52.114Z,4.43
2023-09-17T12:24:47.519Z,5.57
2023-09-17T12:27:26.054Z,4.03
2023-09-17T12:29:54.807Z,3.75
2023-09-17T12:32:25.962Z,3.97
2023-09-17T12:34:54.797Z,5.07
2023-09-17T12:37:22.657Z,2.58
2023-09-17T12:39:50.969Z,4.82
2023-09-17T12:42:18.756Z,5.40
2023-09-17T12:44:45.752Z,4.72
2023-09-17T12:47:12.987Z,4.82
2023-09-17T12:49:40.312Z,7.70
2023-09-17T12:52:08.595Z,4.30
2023-09-17T12:54:35.631Z,4.80
2023-09-17T12:57:02.382Z,4.07
2023-09-17T12:59:34.483Z,3.90
2023-09-17T13:02:04.963Z,3.67
2023-09-17T13:04:42.152Z,3.00
2023-09-17T13:07:20.564Z,3.65
2023-09-17T13:09:49.036Z,4.60
2023-09-17T13:12:19.607Z,5.78
2023-09-17T13:14:49.019Z,3.43
2023-09-17T13:17:17.218Z,6.18
2023-09-17T13:19:44.441Z,4.78
2023-09-17T13:22:12.750Z,5.47
2023-09-17T13:24:41.178Z,7.63
2023-09-17T13:27:09.846Z,4.60
2023-09-17T13:29:38.318Z,4.57
2023-09-17T13:32:08.734Z,3.72
2023-09-17T13:34:35.782Z,3.43
2023-09-17T13:37:02.788Z,5.00
2023-09-17T13:39:29.582Z,6.40
2023-09-17T13:42:01.612Z,5.10
2023-09-17T13:44:28.434Z,5.07
2023-09-17T13:46:57.098Z,4.78
2023-09-17T13:49:23.984Z,5.20
2023-09-17T13:51:50.815Z,4.72
2023-09-17T13:54:17.535Z,5.40
2023-09-17T13:56:44.596Z,4.10
2023-09-17T13:59:11.360Z,3.53
2023-09-17T14:01:40.246Z,3.28
2023-09-17T14:04:07.328Z,4.25
2023-09-17T14:06:34.065Z,5.28
2023-09-17T14:09:00.749Z,4.18
2023-09-17T14:11:28.449Z,3.65
2023-09-17T14:13:55.317Z,4.30
2023-09-17T14:16:22.081Z,3.88
2023-09-17T14:18:51.909Z,3.88
2023-09-17T14:21:18.955Z,4.82
2023-09-17T14:23:45.772Z,6.10
2023-09-17T14:26:12.558Z,5.75
2023-09-17T14:28:39.332Z,3.33
2023-09-17T14:31:06.080Z,3.40
2023-09-17T14:33:32.919Z,3.75
2023-09-17T14:35:59.651Z,5.25
2023-09-17T14:38:26.349Z,5.75
2023-09-17T14:40:53.102Z,4.22
2023-09-17T14:43:20.760Z,4.55
2023-09-17T14:45:47.620Z,7.05
2023-09-17T14:48:14.396Z,4.38
2023-09-17T14:50:41.093Z,6.45
2023-09-17T14:53:07.833Z,4.82
2023-09-17T14:55:34.530Z,5.85
2023-09-17T14:58:01.272Z,3.45
2023-09-17T15:00:28.078Z,5.50
2023-09-17T15:02:55.062Z,4.50
2023-09-17T15:05:21.943Z,4.47
2023-09-17T15:07:48.794Z,3.17
2023-09-17T15:10:15.555Z,5.15
2023-09-17T15:12:42.284Z,3.95
2023-09-17T15:15:09.442Z,3.90
2023-09-17T15:17:37.136Z,4.13
2023-09-17T15:20:05.734Z,3.50
2023-09-17T15:22:34.647Z,5.20
2023-09-17T15:25:01.504Z,3.35
2023-09-17T15:27:29.189Z,4.45
2023-09-17T15:29:55.966Z,2.75
2023-09-17T15:32:24.119Z,3.25
2023-09-17T15:34:51.443Z,2.85
2023-09-17T15:37:18.315Z,4.97
2023-09-17T15:39:45.885Z,5.65
2023-09-17T15:42:12.693Z,7.57
2023-09-17T15:44:39.370Z,5.78
2023-09-17T15:47:06.141Z,3.72
2023-09-17T15:49:32.908Z,3.75
2023-09-17T15:51:59.808Z,2.83
2023-09-17T15:54:26.585Z,4.25
2023-09-17T15:56:53.365Z,3.85
2023-09-17T15:59:20.108Z,4.63
2023-09-17T16:01:47.014Z,3.22
2023-09-17T16:04:13.892Z,3.80
2023-09-17T16:06:40.956Z,3.35
2023-09-17T16:09:07.690Z,3.47
2023-09-17T16:11:34.415Z,3.42
2023-09-17T16:14:01.172Z,4.80
2023-09-17T16:16:28.093Z,3.45
2023-09-17T16:18:54.970Z,4.85
2023-09-17T16:21:21.830Z,5.50
2023-09-17T16:23:48.550Z,6.03
2023-09-17T16:26:15.533Z,3.65
2023-09-17T16:28:42.277Z,3.30
2023-09-17T16:31:09.123Z,4.90
2023-09-17T16:33:36.026Z,3.85
2023-09-17T16:36:02.799Z,3.55
2023-09-17T16:38:29.555Z,3.35
2023-09-17T16:41:00.825Z,2.90
2023-09-17T16:43:28.038Z,5.82
2023-09-17T16:45:55.012Z,3.28
2023-09-17T16:48:21.944Z,2.15
2023-09-17T16:50:48.624Z,3.58
2023-09-17T16:53:15.387Z,2.45
2023-09-17T16:55:42.926Z,3.15
2023-09-17T16:58:09.731Z,4.43
2023-09-17T17:00:36.369Z,3.15
2023-09-17T17:03:03.213Z,2.55
2023-09-17T17:05:29.930Z,3.75
2023-09-17T17:07:58.351Z,2.30
2023-09-17T17:10:25.821Z,3.78
2023-09-17T17:12:52.524Z,4.90
2023-09-17T17:15:19.321Z,3.42
2023-09-17T17:17:46.063Z,5.22
2023-09-17T17:20:13.890Z,5.40
2023-09-17T17:22:49.558Z,5.15
2023-09-17T17:25:17.079Z,7.07
2023-09-17T17:27:43.901Z,5.90
2023-09-17T17:30:11.604Z,6.80
2023-09-17T17:32:40.978Z,4.60
2023-09-17T17:35:09.064Z,4.30
2023-09-17T17:37:36.084Z,6.22
2023-09-17T17:40:02.868Z,4.75
2023-09-17T17:42:29.676Z,5.18
2023-09-17T17:44:57.169Z,6.03
2023-09-17T17:47:24.509Z,4.72
2023-09-17T17:49:52.125Z,4.00
2023-09-17T17:52:22.178Z,3.97
2023-09-17T17:54:49.482Z,4.78
2023-09-17T17:57:17.056Z,4.15
2023-09-17T17:59:43.856Z,7.13
2023-09-17T18:02:10.919Z,5.65
2023-09-17T18:04:37.705Z,3.65
2023-09-17T18:07:04.662Z,4.28
2023-09-17T18:09:31.923Z,3.58
2023-09-17T18:11:58.696Z,4.03
2023-09-17T18:14:25.556Z,5.47
2023-09-17T18:16:52.366Z,5.05
2023-09-17T18:19:19.120Z,3.70
2023-09-17T18:21:45.869Z,7.05
2023-09-17T18:24:12.606Z,3.85
2023-09-17T18:26:39.275Z,3.50
2023-09-17T18:29:07.965Z,4.88
2023-09-17T18:31:34.806Z,3.58
2023-09-17T18:34:01.702Z,3.38
2023-09-17T18:36:28.457Z,4.97
2023-09-17T18:38:55.476Z,4.35
2023-09-17T18:41:22.348Z,6.05
2023-09-17T18:43:49.295Z,5.00
2023-09-17T18:46:19.226Z,4.70
2023-09-17T18:48:46.089Z,4.50
2023-09-17T18:51:12.950Z,4.30
2023-09-17T18:53:39.634Z,5.05
2023-09-17T18:56:06.348Z,2.30
2023-09-17T18:58:33.108Z,2.80
2023-09-17T19:00:59.924Z,3.38
2023-09-17T19:03:26.767Z,2.85
2023-09-17T19:05:53.601Z,3.70
2023-09-17T19:08:20.381Z,4.18
2023-09-17T19:10:49.182Z,3.72
2023-09-17T19:13:17.270Z,5.18
2023-09-17T19:15:45.933Z,3.10
2023-09-17T19:18:12.930Z,3.25
2023-09-17T19:20:39.806Z,3.00
2023-09-17T19:23:07.928Z,6.57
2023-09-17T19:25:35.057Z,5.15
2023-09-17T19:28:01.872Z,4.45
2023-09-17T19:30:28.601Z,3.85
2023-09-17T19:32:55.433Z,3.22
2023-09-17T19:35:22.742Z,4.00
2023-09-17T19:37:49.793Z,3.38
2023-09-17T19:40:16.524Z,3.15
2023-09-17T19:42:43.535Z,3.03
2023-09-17T19:45:10.479Z,3.08
2023-09-17T19:47:37.345Z,6.32
2023-09-17T19:50:04.591Z,4.90
2023-09-17T19:52:31.378Z,5.32
2023-09-17T19:54:58.150Z,5.70
2023-09-17T19:57:25.558Z,5.03
2023-09-17T19:59:52.746Z,3.97
2023-09-17T20:02:20.738Z,3.42
2023-09-17T20:04:47.708Z,4.72
2023-09-17T20:07:14.468Z,3.55
2023-09-17T20:09:41.213Z,5.13
2023-09-17T20:12:08.371Z,3.85
2023-09-17T20:14:35.140Z,4.15
2023-09-17T20:17:01.868Z,4.68
2023-09-17T20:19:28.629Z,4.70
2023-09-17T20:21:55.394Z,6.15
2023-09-17T20:24:22.158Z,4.55
2023-09-17T20:26:48.891Z,5.38
2023-09-17T20:29:15.694Z,3.90
2023-09-17T20:31:42.665Z,4.22
2023-09-17T20:34:10.206Z,4.57
2023-09-17T20:36:36.982Z,4.40
2023-09-17T20:39:06.813Z,4.40
2023-09-17T20:41:34.284Z,5.47
2023-09-17T20:44:01.112Z,4.40
2023-09-17T20:46:27.803Z,4.32
2023-09-17T20:48:57.578Z,4.72
2023-09-17T20:51:26.249Z,4.55
2023-09-17T20:53:53.298Z,5.00
2023-09-17T20:56:20.880Z,4.70
2023-09-17T20:58:48.882Z,4.10
2023-09-17T21:01:15.788Z,6.38
2023-09-17T21:03:43.726Z,4.47
2023-09-17T21:06:10.560Z,5.18
2023-09-17T21:08:37.464Z,4.47
2023-09-17T21:11:04.229Z,5.85
2023-09-17T21:13:31.108Z,3.78
2023-09-17T21:15:57.967Z,4.78
2023-09-17T21:18:24.904Z,4.80
2023-09-17T21:20:52.715Z,5.63
2023-09-17T21:23:19.437Z,6.00
2023-09-17T21:25:46.268Z,3.70
2023-09-17T21:28:12.982Z,6.35
2023-09-17T21:30:42.672Z,4.35
2023-09-17T21:33:09.365Z,5.20
2023-09-17T21:35:36.244Z,5.20
2023-09-17T21:38:03.048Z,3.88
2023-09-17T21:40:29.983Z,5.55
2023-09-17T21:42:56.694Z,4.43
2023-09-17T21:45:23.518Z,6.25
2023-09-17T21:47:50.308Z,4.35
2023-09-17T21:50:17.275Z,4.80
2023-09-17T21:52:44.180Z,5.00
2023-09-17T21:55:10.899Z,4.22
2023-09-17T21:57:37.594Z,3.88
2023-09-17T22:00:06.536Z,5.32
2023-09-17T22:02:33.360Z,4.57
2023-09-17T22:05:00.256Z,5.78
2023-09-17T22:07:27.524Z,4.90
2023-09-17T22:09:54.221Z,5.07
2023-09-17T22:12:21.220Z,5.53
2023-09-17T22:14:47.910Z,5.30
2023-09-17T22:17:17.634Z,4.72
2023-09-17T22:19:49.922Z,5.22
2023-09-17T22:22:16.775Z,5.03
2023-09-17T22:24:45.188Z,6.32
2023-09-17T22:27:13.642Z,3.97
2023-09-17T22:29:42.478Z,5.18
2023-09-17T22:32:09.168Z,5.43
2023-09-17T22:34:36.134Z,5.78
2023-09-17T22:37:03.061Z,4.75
2023-09-17T22:39:29.979Z,6.22
2023-09-17T22:41:56.648Z,6.07
2023-09-17T22:44:24.663Z,5.10
2023-09-17T22:46:52.318Z,4.95
2023-09-17T22:49:19.264Z,6.07
2023-09-17T22:51:45.994Z,4.95
2023-09-17T22:54:12.721Z,5.68
2023-09-17T22:56:39.441Z,5.32
2023-09-17T22:59:06.315Z,6.65
2023-09-17T23:01:33.543Z,5.00
2023-09-17T23:04:00.388Z,6.75
2023-09-17T23:06:27.875Z,5.88
2023-09-17T23:08:55.878Z,5.75
2023-09-17T23:11:22.895Z,7.65
2023-09-17T23:13:49.844Z,7.38
2023-09-17T23:16:16.906Z,7.30
2023-09-17T23:18:43.854Z,6.38
2023-09-17T23:21:14.791Z,7.00
2023-09-17T23:23:45.957Z,8.80
2023-09-17T23:26:14.168Z,9.23
2023-09-17T23:28:41.198Z,5.85
2023-09-17T23:31:09.921Z,7.90
2023-09-17T23:33:37.003Z,6.20
2023-09-17T23:36:04.371Z,5.75
2023-09-17T23:38:31.727Z,6.85
2023-09-17T23:40:58.728Z,5.78
2023-09-17T23:43:25.709Z,7.20
2023-09-17T23:45:52.936Z,7.53
2023-09-17T23:48:19.752Z,7.10
2023-09-17T23:50:46.896Z,6.57
2023-09-17T23:53:13.649Z,7.05
2023-09-17T23:55:40.653Z,6.90
2023-09-17T23:58:07.366Z,7.30
